Latest Weather Observations for Karratha

IDW60801

Issued at 12:05 pm WST Monday 28 July 2014 (issued every 30 minutes, with the page automatically refreshed every 10 minutes)

About weather observations | Map of weather stations | Latest weather observations for WA | Other Formats
Station Details ID: 004083 Name: KARRATHA AERO Lat: -20.71 Lon: 116.77 Height: 5.3 m
Data from the previous 72 hours. | See also: Recent months at Karratha
Date/Time
WST
Temp
°C
App
Temp
°C
Dew
Point
Rel
Hum
%
Delta-T
°C
Wind Press
QNH
hPa
Press
MSL
hPa
Rain
since 9 am
mm
Dir
 
Spd
km/h
Gust
km/h
Spd
kts
Gust
kts
28/12:00pm 29.7 26.4 4.4 20 13.0 W 11 17 6 9 1018.6 1018.6 0.0
28/11:30am 30.4 28.0 4.2 19 13.4 S 6 13 3 7 1018.9 - 0.0
28/11:00am 29.1 25.7 3.9 20 12.8 SSE 11 17 6 9 1019.3 - 0.0
28/10:30am 29.0 24.4 3.8 20 12.8 SSE 17 20 9 11 1019.5 - 0.0
28/10:00am 28.1 23.5 3.7 21 12.3 SSE 17 20 9 11 1019.8 - 0.0
28/09:30am 25.9 22.2 2.6 22 11.3 S 11 20 6 11 1019.9 - 0.0
28/09:00am 23.8 19.5 3.2 26 9.9 SSW 15 20 8 11 1019.9 1019.9 0.0
28/08:30am 22.2 18.4 3.8 30 8.9 SSW 13 17 7 9 1019.6 - 0.0
28/08:00am 19.1 15.2 7.2 46 6.0 WSW 17 20 9 11 1019.6 - 0.0
28/07:30am 16.2 14.2 10.3 68 3.1 SW 11 11 6 6 1019.5 - 0.0
28/07:00am 13.6 13.2 9.8 78 2.0 NNE 2 9 1 5 1019.4 - 0.0
28/06:30am 12.8 12.4 9.6 81 1.6 E 2 7 1 4 1019.1 - 0.0
28/06:00am 13.0 12.6 9.6 80 1.7 E 2 7 1 4 1018.8 1018.8 0.0
28/05:30am 14.4 13.1 9.8 74 2.4 WSW 7 9 4 5 1018.6 - 0.0
28/05:00am 15.3 12.9 10.1 71 2.7 WSW 13 15 7 8 1018.5 - 0.0
28/04:30am 15.3 13.7 10.3 72 2.6 NW 9 13 5 7 1018.4 - 0.0
28/04:00am 15.7 13.8 10.5 71 2.7 W 11 13 6 7 1018.2 - 0.0
28/03:30am 14.6 13.2 10.8 78 2.0 SSW 9 13 5 7 1018.2 - 0.0
28/03:00am 15.6 13.0 10.8 73 2.5 SW 15 17 8 9 1018.3 1018.3 0.0
28/02:30am 14.2 12.0 9.4 73 2.5 SW 11 15 6 8 1018.5 - 0.0
28/02:00am 16.4 15.5 10.7 69 3.0 W 6 7 3 4 1018.7 - 0.0
28/01:30am 15.8 13.9 9.2 65 3.4 SW 9 11 5 6 1018.9 - 0.0
28/01:00am 15.4 14.1 9.3 67 3.1 SW 6 7 3 4 1019.0 - 0.0
28/12:47am 15.9 14.4 9.3 65 3.4 SSW 7 9 4 5 1019.0 - 0.0
28/12:30am 15.4 14.0 9.5 68 3.0 SSW 7 11 4 6 1019.3 - 0.0
28/12:29am 15.2 13.4 9.3 68 3.0 S 9 11 5 6 1019.3 - 0.0
28/12:00am 16.6 15.3 9.8 64 3.6 SW 7 9 4 5 1019.5 1019.5 0.0
 
Date/Time
WST
Temp
°C
App
Temp
°C
Dew
Point
Rel
Hum
%
Delta-T
°C
Wind Press
QNH
hPa
Press
MSL
hPa
Rain
since 9 am
mm
Dir
 
Spd
km/h
Gust
km/h
Spd
kts
Gust
kts
27/11:30pm 19.1 17.7 10.9 59 4.5 W 9 13 5 7 1019.5 - 0.0
27/11:00pm 19.4 17.8 11.4 60 4.4 WNW 11 15 6 8 1019.6 - 0.0
27/10:30pm 17.4 14.2 8.5 56 4.6 SSW 15 17 8 9 1019.5 - 0.0
27/10:00pm 17.7 16.4 10.1 61 4.0 W 7 9 4 5 1019.6 - 0.0
27/09:30pm 17.4 14.5 9.8 61 4.0 SW 15 17 8 9 1019.6 - 0.0
27/09:00pm 17.6 16.5 10.7 64 3.7 WSW 7 11 4 6 1019.6 1019.6 0.0
27/08:30pm 19.3 17.8 13.0 67 3.6 WSW 13 15 7 8 1019.6 - 0.0
27/08:00pm 20.2 19.2 12.2 60 4.5 W 9 11 5 6 1019.4 - 0.0
27/07:30pm 20.5 19.1 12.2 59 4.6 W 11 13 6 7 1019.2 - 0.0
27/07:00pm 21.8 19.8 10.3 48 6.3 W 11 13 6 7 1019.0 - 0.0
27/06:30pm 22.5 20.7 12.2 52 5.8 W 13 15 7 8 1018.5 - 0.0
27/06:00pm 23.5 21.1 8.8 39 7.9 W 11 15 6 8 1018.4 1018.4 0.0
27/05:30pm 24.8 21.7 7.4 33 9.2 WSW 13 15 7 8 1018.2 - 0.0
27/05:00pm 26.1 22.6 3.4 23 11.2 W 11 15 6 8 1018.0 - 0.0
27/04:30pm 26.8 24.5 5.7 26 10.9 W 7 13 4 7 1017.9 - 0.0
27/04:00pm 26.8 23.5 2.7 21 11.8 N 9 13 5 7 1017.9 - 0.0
27/03:30pm 26.6 22.7 3.2 22 11.5 N 13 17 7 9 1017.9 - 0.0
27/03:00pm 26.7 21.8 3.9 23 11.4 NNE 19 24 10 13 1017.9 1017.9 0.0
27/02:30pm 26.7 21.9 4.5 24 11.2 NNE 19 26 10 14 1017.9 - 0.0
27/02:00pm 26.6 21.5 3.2 22 11.5 NNE 19 26 10 14 1018.1 - 0.0
27/01:30pm 26.1 20.7 2.7 22 11.4 NNE 20 24 11 13 1018.4 - 0.0
27/01:00pm 27.1 22.5 3.6 22 11.7 NNE 17 22 9 12 1018.6 - 0.0
27/12:30pm 26.6 22.2 2.5 21 11.7 NE 15 19 8 10 1019.1 - 0.0
27/12:00pm 26.3 21.6 2.9 22 11.4 NE 17 22 9 12 1019.6 1019.6 0.0
27/11:30am 26.5 22.2 3.1 22 11.5 ENE 15 20 8 11 1019.9 - 0.0
27/11:00am 25.7 22.2 3.6 24 10.9 ENE 11 17 6 9 1020.3 - 0.0
27/10:30am 25.3 22.2 5.5 28 10.1 E 11 17 6 9 1020.7 - 0.0
27/10:00am 24.3 21.3 4.1 27 10.0 E 9 11 5 6 1021.1 - 0.0
27/09:30am 22.6 19.3 2.7 27 9.5 SE 9 13 5 7 1021.4 - 0.0
27/09:00am 20.8 17.3 3.5 32 8.2 S 11 13 6 7 1021.4 1021.4 0.0
27/08:30am 18.2 14.8 4.0 39 6.7 S 11 15 6 8 1021.2 - 0.0
27/08:00am 15.7 12.6 3.8 45 5.5 SW 9 13 5 7 1020.9 - 0.0
27/07:30am 12.5 9.6 4.5 58 3.6 S 9 13 5 7 1020.7 - 0.0
27/07:00am 10.5 6.7 4.0 64 2.9 S 13 15 7 8 1020.4 - 0.0
27/06:30am 10.6 7.2 3.9 63 3.0 S 11 15 6 8 1020.3 - 0.0
27/06:00am 11.2 8.2 4.0 61 3.2 SW 9 15 5 8 1020.4 1020.4 0.0
27/05:30am 11.4 7.9 3.4 58 3.5 S 11 13 6 7 1020.0 - 0.0
27/05:00am 10.6 6.8 3.9 63 3.0 SSW 13 19 7 10 1019.9 - 0.0
27/04:30am 11.2 6.9 3.5 59 3.4 S 15 15 8 8 1019.7 - 0.0
27/04:00am 12.0 7.7 3.3 55 3.8 S 15 17 8 9 1019.7 - 0.0
27/03:30am 10.5 7.4 3.8 63 3.0 S 9 11 5 6 1019.8 - 0.0
27/03:00am 10.3 6.9 3.8 64 2.8 S 11 13 6 7 1019.6 1019.6 0.0
27/02:30am 12.0 9.5 4.0 58 3.6 SSW 6 9 3 5 1019.7 - 0.0
27/02:00am 12.6 10.8 3.3 53 4.1 SSW 2 9 1 5 1019.8 - 0.0
27/01:30am 13.8 12.5 3.9 51 4.5 CALM 0 6 0 3 1020.0 - 0.0
27/01:00am 13.5 10.8 3.8 52 4.4 S 7 9 4 5 1019.9 - 0.0
27/12:30am 13.2 10.7 4.6 56 3.9 S 7 9 4 5 1020.1 - 0.0
27/12:00am 13.2 10.2 6.1 62 3.4 SSW 11 13 6 7 1020.2 1020.2 0.0
 
Date/Time
WST
Temp
°C
App
Temp
°C
Dew
Point
Rel
Hum
%
Delta-T
°C
Wind Press
QNH
hPa
Press
MSL
hPa
Rain
since 9 am
mm
Dir
 
Spd
km/h
Gust
km/h
Spd
kts
Gust
kts
26/11:30pm 13.8 10.4 5.9 59 3.7 WSW 13 17 7 9 1020.3 - 0.0
26/11:00pm 13.3 11.1 6.4 63 3.3 S 7 11 4 6 1020.3 - 0.0
26/10:30pm 13.1 11.2 7.5 69 2.7 S 7 9 4 5 1020.5 - 0.0
26/10:00pm 13.6 12.6 7.2 65 3.1 SSE 2 7 1 4 1020.4 - 0.0
26/09:30pm 14.7 13.9 6.3 57 4.0 CALM 0 0 0 0 1020.3 - 0.0
26/09:00pm 14.7 13.8 6.0 56 4.1 CALM 0 0 0 0 1020.1 1020.1 0.0
26/08:30pm 14.5 13.4 7.1 61 3.6 SSE 2 6 1 3 1020.0 - 0.0
26/08:00pm 15.3 13.9 9.0 66 3.2 SSE 6 7 3 4 1019.8 - 0.0
26/07:30pm 16.5 14.8 9.7 64 3.6 E 9 11 5 6 1019.6 - 0.0
26/07:00pm 17.7 16.3 9.6 59 4.3 E 7 9 4 5 1019.5 - 0.0
26/06:30pm 17.9 16.6 10.0 60 4.2 NE 7 7 4 4 1019.4 - 0.0
26/06:00pm 19.3 17.4 8.9 51 5.4 NE 9 9 5 5 1019.4 1019.4 0.0
26/05:30pm 21.3 18.3 7.9 42 7.0 NNE 13 17 7 9 1019.2 - 0.0
26/05:00pm 22.2 18.1 6.4 36 8.0 NNE 17 22 9 12 1019.2 - 0.0
26/04:30pm 23.0 18.0 4.5 30 9.1 NE 20 26 11 14 1019.1 - 0.0
26/04:00pm 23.8 18.6 3.7 27 9.8 NE 20 28 11 15 1019.3 - 0.0
26/03:30pm 23.9 19.1 4.8 29 9.5 NE 19 26 10 14 1019.2 - 0.0
26/03:00pm 24.8 19.8 4.5 27 10.1 NE 20 26 11 14 1019.1 1019.1 0.0
26/02:30pm 24.7 19.1 3.4 25 10.4 ENE 22 30 12 16 1019.3 - 0.0
26/02:00pm 24.5 18.5 3.2 25 10.4 ENE 24 30 13 16 1019.5 - 0.0
26/01:30pm 24.7 18.5 2.2 23 10.8 ENE 24 32 13 17 1019.8 - 0.0
26/01:00pm 24.6 18.1 2.7 24 10.6 ENE 26 33 14 18 1020.1 - 0.0
26/12:30pm 23.8 17.9 3.7 27 9.8 ENE 24 28 13 15 1020.5 - 0.0
26/12:00pm 23.7 18.3 4.6 29 9.4 ENE 22 28 12 15 1021.1 1021.1 0.0
26/11:30am 23.0 17.5 5.9 33 8.7 ENE 24 30 13 16 1021.4 - 0.0
26/11:00am 23.0 17.8 3.5 28 9.4 ENE 20 30 11 16 1021.8 - 0.0
26/10:30am 22.1 17.9 5.5 34 8.3 ENE 17 24 9 13 1022.2 - 0.0
26/10:00am 21.7 16.8 3.9 31 8.6 E 19 24 10 13 1022.5 - 0.0
26/09:30am 19.8 16.5 4.7 37 7.3 ENE 11 17 6 9 1022.5 - 0.0
26/09:00am 18.2 15.7 4.7 41 6.4 NE 7 9 4 5 1022.4 1022.4 0.0
26/08:30am 16.5 15.5 5.5 48 5.3 CALM 0 0 0 0 1022.0 - 0.0
26/08:00am 13.6 11.6 7.2 65 3.1 S 7 9 4 5 1021.4 - 0.0
26/07:30am 10.5 8.4 6.6 77 1.8 S 7 11 4 6 1021.0 - 0.0
26/07:00am 8.7 5.6 5.4 80 1.5 S 11 13 6 7 1020.9 - 0.0
26/06:30am 9.8 9.0 6.3 79 1.6 CALM 0 0 0 0 1020.5 - 0.0
26/06:00am 10.1 9.3 6.6 79 1.6 CALM 0 0 0 0 1020.1 1020.1 0.0
26/05:30am 9.5 8.8 7.1 85 1.1 CALM 0 0 0 0 1019.8 - 0.0
26/05:00am 8.7 5.4 6.5 86 1.0 SSE 13 13 7 7 1019.2 - 0.0
26/04:30am 8.6 5.3 6.6 87 0.9 S 13 15 7 8 1019.2 - 0.0
26/04:00am 8.9 5.0 6.9 87 0.9 S 17 17 9 9 1019.2 - 0.0
26/03:30am 9.2 5.7 7.0 86 1.0 S 15 17 8 9 1019.1 - 0.0
26/03:00am 9.5 7.4 6.8 83 1.3 S 7 9 4 5 1019.2 1019.2 0.0
26/02:30am 9.7 7.9 7.0 83 1.3 SSE 6 9 3 5 1019.4 - 0.0
26/02:00am 9.6 7.1 6.7 82 1.4 S 9 11 5 6 1019.5 - 0.0
26/01:30am 10.7 6.9 7.4 80 1.6 S 17 17 9 9 1019.7 - 0.0
26/01:00am 10.2 6.7 7.3 82 1.4 S 15 15 8 8 1020.0 - 0.0
26/12:30am 10.1 6.6 7.0 81 1.5 S 15 15 8 8 1020.2 - 0.0
26/12:00am 10.9 7.1 7.4 79 1.7 S 17 17 9 9 1020.3 1020.3 0.0
 
Date/Time
WST
Temp
°C
App
Temp
°C
Dew
Point
Rel
Hum
%
Delta-T
°C
Wind Press
QNH
hPa
Press
MSL
hPa
Rain
since 9 am
mm
Dir
 
Spd
km/h
Gust
km/h
Spd
kts
Gust
kts
25/11:30pm 11.2 7.4 7.7 79 1.7 S 17 19 9 10 1020.2 - 0.0
25/11:00pm 11.5 7.8 8.0 79 1.7 S 17 19 9 10 1020.3 - 0.0
25/10:30pm 11.5 8.2 8.2 80 1.6 S 15 17 8 9 1020.6 - 0.0
25/10:00pm 12.3 8.8 8.6 78 1.8 S 17 19 9 10 1020.7 - 0.0
25/09:30pm 12.3 10.3 8.8 79 1.7 SSE 9 9 5 5 1020.5 - 0.0
25/09:00pm 12.8 11.3 9.1 78 1.9 SSE 7 11 4 6 1020.4 1020.4 0.0
25/08:30pm 13.8 13.7 9.5 75 2.2 CALM 0 2 0 1 1020.4 - 0.0
25/08:00pm 16.1 16.4 10.8 71 2.8 CALM 0 6 0 3 1020.0 - 0.0
25/07:30pm 16.4 15.5 10.5 68 3.1 NE 6 7 3 4 1019.8 - 0.0
25/07:00pm 16.8 15.6 10.4 66 3.4 NNE 7 9 4 5 1019.5 - 0.0
25/06:30pm 16.9 15.1 9.6 62 3.8 NNE 9 11 5 6 1019.2 - 0.0
25/06:00pm 18.3 16.2 9.9 58 4.4 NNE 11 13 6 7 1019.2 1019.2 0.0
25/05:30pm 19.7 16.9 8.4 48 5.9 NNE 13 17 7 9 1019.0 - 0.0
25/05:00pm 20.5 16.4 6.4 40 7.1 NNE 17 22 9 12 1019.1 - 0.0
25/04:30pm 21.2 16.8 6.7 39 7.4 NNE 19 26 10 14 1019.1 - 0.0
25/04:00pm 21.1 16.4 6.2 38 7.5 NNE 20 30 11 16 1019.2 - 0.0
25/03:30pm 21.1 16.0 5.9 37 7.6 NNE 22 30 12 16 1019.1 - 0.0
25/03:00pm 21.3 15.7 5.6 36 7.8 NNE 24 32 13 17 1019.3 1019.3 0.0
25/02:30pm 21.1 15.3 4.6 34 8.0 NNE 24 32 13 17 1019.3 - 0.0
25/02:00pm 21.1 15.1 5.5 36 7.7 NNE 26 33 14 18 1019.5 - 0.0
25/01:30pm 21.0 14.6 5.4 36 7.7 NE 28 35 15 19 1019.7 - 0.0
25/01:00pm 21.1 14.3 5.1 35 7.9 NE 30 37 16 20 1020.0 - 0.0
25/12:30pm 21.2 14.0 5.1 35 7.9 NE 32 39 17 21 1020.4 - 0.0

Other Formats:

Comma delimited format used in spreadsheet applications
http://www.bom.gov.au/fwo/IDW60801/IDW60801.95307.axf

JavaScript Object Notation format (JSON) in row-major order
http://www.bom.gov.au/fwo/IDW60801/IDW60801.95307.json